YV191T VNKT-VQPR
Flight info
| Callsign | YV191T |
|---|---|
| Flight time | N/A |
| Altitude | 29000 |
| Route | N0505A010 IGRI1C KIMTI B345 TUMLI G348 BGD DCT |
| Aircraft | MD83/M-SDE1FGHIJ1RWXYZ/LB1 |
Departure
| Time | 2026-05-07 08:53 |
|---|---|
| Airport | Tribhuvan International Airport (VNKT) |
Arrival
| Time | N/A |
|---|---|
| Airport | Paro International Airport (VQPR) |
| Time | Latitude | Longitude | Altitude | Speed | Heading |
|---|---|---|---|---|---|
| 2026-05-07 08:31 | 27.69819 | 85.35764 | 4370 ft | 0 kts | 291° |
| 2026-05-07 08:36 | 27.69810 | 85.35789 | 4349 ft | 4 kts | 291° |
| 2026-05-07 08:37 | 27.69800 | 85.35817 | 4361 ft | 4 kts | 291° |
| 2026-05-07 08:37 | 27.69792 | 85.35842 | 4361 ft | 4 kts | 276° |
| 2026-05-07 08:37 | 27.69795 | 85.35857 | 4362 ft | 4 kts | 210° |
| 2026-05-07 08:37 | 27.69819 | 85.35867 | 4356 ft | 4 kts | 199° |
| 2026-05-07 08:38 | 27.69826 | 85.35870 | 4352 ft | 0 kts | 201° |
| 2026-05-07 08:39 | 27.69825 | 85.35869 | 4352 ft | 1 kts | 201° |
| 2026-05-07 08:39 | 27.69815 | 85.35865 | 4355 ft | 2 kts | 201° |
| 2026-05-07 08:39 | 27.69795 | 85.35856 | 4370 ft | 4 kts | 201° |
| 2026-05-07 08:40 | 27.69777 | 85.35848 | 4367 ft | 0 kts | 201° |
| 2026-05-07 08:40 | 27.69775 | 85.35847 | 4366 ft | 1 kts | 201° |
| 2026-05-07 08:40 | 27.69774 | 85.35847 | 4366 ft | 0 kts | 201° |
| 2026-05-07 08:42 | 27.69767 | 85.35844 | 4365 ft | 3 kts | 201° |
| 2026-05-07 08:42 | 27.69734 | 85.35829 | 4360 ft | 9 kts | 202° |
| 2026-05-07 08:42 | 27.69686 | 85.35807 | 4359 ft | 17 kts | 202° |
| 2026-05-07 08:43 | 27.69607 | 85.35771 | 4350 ft | 24 kts | 202° |
| 2026-05-07 08:43 | 27.69413 | 85.35681 | 4355 ft | 34 kts | 202° |
| 2026-05-07 08:43 | 27.69198 | 85.35584 | 4342 ft | 30 kts | 202° |
| 2026-05-07 08:43 | 27.69086 | 85.35566 | 4346 ft | 15 kts | 146° |
| 2026-05-07 08:44 | 27.69002 | 85.35608 | 4343 ft | 14 kts | 189° |
| 2026-05-07 08:44 | 27.68915 | 85.35574 | 4339 ft | 13 kts | 201° |
| 2026-05-07 08:44 | 27.68830 | 85.35537 | 4342 ft | 13 kts | 198° |
| 2026-05-07 08:44 | 27.68734 | 85.35497 | 4339 ft | 18 kts | 202° |
| 2026-05-07 08:45 | 27.68631 | 85.35450 | 4338 ft | 17 kts | 202° |
| 2026-05-07 08:45 | 27.68554 | 85.35415 | 4338 ft | 11 kts | 202° |
| 2026-05-07 08:45 | 27.68521 | 85.35400 | 4338 ft | 0 kts | 202° |
| 2026-05-07 08:46 | 27.68519 | 85.35399 | 4338 ft | 2 kts | 199° |
| 2026-05-07 08:46 | 27.68516 | 85.35398 | 4338 ft | 0 kts | 196° |
| 2026-05-07 08:46 | 27.68515 | 85.35398 | 4338 ft | 2 kts | 195° |
| 2026-05-07 08:47 | 27.68508 | 85.35396 | 4338 ft | 1 kts | 187° |
| 2026-05-07 08:47 | 27.68493 | 85.35397 | 4332 ft | 2 kts | 172° |
| 2026-05-07 08:47 | 27.68482 | 85.35401 | 4337 ft | 1 kts | 159° |
| 2026-05-07 08:47 | 27.68480 | 85.35402 | 4337 ft | 0 kts | 156° |
| 2026-05-07 08:50 | 27.68476 | 85.35404 | 4337 ft | 3 kts | 152° |
| 2026-05-07 08:50 | 27.68465 | 85.35414 | 4337 ft | 3 kts | 137° |
| 2026-05-07 08:50 | 27.68450 | 85.35445 | 4338 ft | 7 kts | 103° |
| 2026-05-07 08:51 | 27.68495 | 85.35516 | 4339 ft | 17 kts | 9° |
| 2026-05-07 08:51 | 27.68532 | 85.35507 | 4339 ft | 7 kts | 328° |
| 2026-05-07 08:51 | 27.68552 | 85.35478 | 4339 ft | 9 kts | 293° |
| 2026-05-07 08:51 | 27.68555 | 85.35465 | 4339 ft | 5 kts | 281° |
| 2026-05-07 08:52 | 27.68530 | 85.35404 | 4338 ft | 3 kts | 213° |
| 2026-05-07 08:52 | 27.68503 | 85.35396 | 4335 ft | 9 kts | 183° |
| 2026-05-07 08:52 | 27.68437 | 85.35497 | 4338 ft | 0 kts | 87° |
| 2026-05-07 08:52 | 27.68512 | 85.35770 | 4365 ft | 251 kts | 79° |
| 2026-05-07 08:53 | 27.69088 | 85.37496 | 5141 ft | 218 kts | 51° |
| 2026-05-07 08:53 | 27.69956 | 85.38493 | 6150 ft | 191 kts | 21° |
| 2026-05-07 08:53 | 27.71255 | 85.38861 | 6527 ft | 197 kts | 1° |
| 2026-05-07 08:53 | 27.72620 | 85.39070 | 6936 ft | 201 kts | 1° |
| 2026-05-07 08:54 | 27.74031 | 85.39278 | 7263 ft | 208 kts | 0° |
| 2026-05-07 08:54 | 27.75423 | 85.39436 | 7711 ft | 212 kts | 0° |
| 2026-05-07 08:54 | 27.76902 | 85.39470 | 8258 ft | 214 kts | 346° |
| 2026-05-07 08:54 | 27.78373 | 85.39148 | 8827 ft | 217 kts | 342° |
| 2026-05-07 08:55 | 27.79850 | 85.38828 | 9404 ft | 220 kts | 351° |
| 2026-05-07 08:55 | 27.81385 | 85.38717 | 9917 ft | 223 kts | 354° |
| 2026-05-07 08:55 | 27.82983 | 85.38638 | 10281 ft | 235 kts | 352° |
| 2026-05-07 08:55 | 27.84614 | 85.38487 | 10818 ft | 237 kts | 349° |
| 2026-05-07 08:56 | 27.86252 | 85.38236 | 11388 ft | 239 kts | 346° |
| 2026-05-07 08:56 | 27.87886 | 85.37895 | 11870 ft | 241 kts | 345° |
| 2026-05-07 08:56 | 27.89571 | 85.37736 | 12260 ft | 244 kts | 356° |
| 2026-05-07 08:56 | 27.91253 | 85.37798 | 12757 ft | 244 kts | 358° |
| 2026-05-07 08:57 | 27.92980 | 85.37916 | 12960 ft | 258 kts | 359° |
| 2026-05-07 08:57 | 27.94832 | 85.38056 | 13021 ft | 275 kts | 359° |
| 2026-05-07 08:57 | 27.96782 | 85.38213 | 13158 ft | 289 kts | 359° |
| 2026-05-07 08:57 | 27.98635 | 85.38198 | 13272 ft | 301 kts | 342° |